Terminal Aerodrome Forecast
Issued by NWS

Home | Current Version | Previous Version | Text Only | Print | Product List | Glossary Off
Versions: 1 2 3 4 5 6 7 8 9 10 11 12 13 14 15 16 17 18 19 20 21 22 23 24 25 26 27 28 29 30
000 FTUS41 KBOX 310535 TAFACK TAF KACK 310535Z 3106/0106 32024G35KT P6SM OVC025 FM310800 32025G35KT 4SM -SN OVC015 FM311300 32028G40KT P6SM OVC040 FM311900 31028G39KT P6SM SCT250=

USA.gov is the U.S. government's official web portal to all federal, state and local government web resources and services.